sensor_id;sensor_type;location;lat;lon;timestamp;P1;durP1;ratioP1;P2;durP2;ratioP2
74904;SDS011;63465;50.862;6.220;2023-03-14T00:02:21;2.40;;;1.77;;
74904;SDS011;63465;50.862;6.220;2023-03-14T00:04:48;4.13;;;1.50;;
74904;SDS011;63465;50.862;6.220;2023-03-14T00:07:15;8.10;;;1.77;;
74904;SDS011;63465;50.862;6.220;2023-03-14T00:09:41;3.37;;;1.40;;
74904;SDS011;63465;50.862;6.220;2023-03-14T00:12:08;1.77;;;1.10;;
74904;SDS011;63465;50.862;6.220;2023-03-14T00:14:35;5.60;;;1.77;;
74904;SDS011;63465;50.862;6.220;2023-03-14T00:17:03;2.60;;;1.40;;
74904;SDS011;63465;50.862;6.220;2023-03-14T00:19:30;3.13;;;1.73;;
74904;SDS011;63465;50.862;6.220;2023-03-14T00:21:57;2.70;;;1.10;;
74904;SDS011;63465;50.862;6.220;2023-03-14T00:24:23;7.03;;;1.10;;
74904;SDS011;63465;50.862;6.220;2023-03-14T00:26:50;6.77;;;1.60;;
74904;SDS011;63465;50.862;6.220;2023-03-14T00:29:17;1.87;;;1.23;;
74904;SDS011;63465;50.862;6.220;2023-03-14T00:31:44;5.97;;;1.10;;
74904;SDS011;63465;50.862;6.220;2023-03-14T00:34:12;2.93;;;1.00;;
74904;SDS011;63465;50.862;6.220;2023-03-14T00:36:39;1.63;;;1.07;;
74904;SDS011;63465;50.862;6.220;2023-03-14T00:39:05;7.30;;;0.90;;
74904;SDS011;63465;50.862;6.220;2023-03-14T00:41:32;1.87;;;0.83;;
74904;SDS011;63465;50.862;6.220;2023-03-14T00:43:59;2.00;;;1.10;;
74904;SDS011;63465;50.862;6.220;2023-03-14T00:46:26;5.13;;;1.00;;
74904;SDS011;63465;50.862;6.220;2023-03-14T00:48:53;1.60;;;0.90;;
74904;SDS011;63465;50.862;6.220;2023-03-14T00:51:21;3.90;;;1.33;;
74904;SDS011;63465;50.862;6.220;2023-03-14T00:53:47;3.30;;;1.47;;
74904;SDS011;63465;50.862;6.220;2023-03-14T00:56:14;2.00;;;1.10;;
74904;SDS011;63465;50.862;6.220;2023-03-14T00:58:41;5.90;;;1.33;;
74904;SDS011;63465;50.862;6.220;2023-03-14T01:01:10;1.90;;;1.30;;
74904;SDS011;63465;50.862;6.220;2023-03-14T01:03:39;2.60;;;0.97;;
74904;SDS011;63465;50.862;6.220;2023-03-14T01:06:06;1.37;;;1.13;;
74904;SDS011;63465;50.862;6.220;2023-03-14T01:08:36;2.73;;;1.00;;
74904;SDS011;63465;50.862;6.220;2023-03-14T01:11:05;4.43;;;1.50;;
74904;SDS011;63465;50.862;6.220;2023-03-14T01:13:32;9.70;;;1.10;;
74904;SDS011;63465;50.862;6.220;2023-03-14T01:16:02;2.50;;;1.00;;
74904;SDS011;63465;50.862;6.220;2023-03-14T01:18:30;5.80;;;0.90;;
74904;SDS011;63465;50.862;6.220;2023-03-14T01:20:57;2.17;;;1.10;;
74904;SDS011;63465;50.862;6.220;2023-03-14T01:23:24;4.00;;;1.30;;
74904;SDS011;63465;50.862;6.220;2023-03-14T01:25:52;3.53;;;0.90;;
74904;SDS011;63465;50.862;6.220;2023-03-14T01:28:19;4.73;;;0.97;;
74904;SDS011;63465;50.862;6.220;2023-03-14T01:30:45;5.27;;;1.00;;
74904;SDS011;63465;50.862;6.220;2023-03-14T01:33:12;6.17;;;0.90;;
74904;SDS011;63465;50.862;6.220;2023-03-14T01:35:42;2.43;;;1.40;;
74904;SDS011;63465;50.862;6.220;2023-03-14T01:38:09;2.20;;;0.80;;
74904;SDS011;63465;50.862;6.220;2023-03-14T01:40:41;3.00;;;1.20;;
74904;SDS011;63465;50.862;6.220;2023-03-14T01:43:15;2.47;;;1.13;;
74904;SDS011;63465;50.862;6.220;2023-03-14T01:48:48;6.77;;;1.17;;
74904;SDS011;63465;50.862;6.220;2023-03-14T01:51:23;4.87;;;1.57;;
74904;SDS011;63465;50.862;6.220;2023-03-14T01:53:53;1.63;;;1.10;;
74904;SDS011;63465;50.862;6.220;2023-03-14T01:56:24;2.07;;;1.10;;
74904;SDS011;63465;50.862;6.220;2023-03-14T01:58:53;4.50;;;1.53;;
74904;SDS011;63465;50.862;6.220;2023-03-14T02:01:21;2.83;;;0.97;;
74904;SDS011;63465;50.862;6.220;2023-03-14T02:03:52;4.70;;;1.23;;
74904;SDS011;63465;50.862;6.220;2023-03-14T02:06:22;3.17;;;1.47;;
74904;SDS011;63465;50.862;6.220;2023-03-14T02:08:55;2.37;;;1.17;;
74904;SDS011;63465;50.862;6.220;2023-03-14T02:11:24;6.13;;;1.20;;
74904;SDS011;63465;50.862;6.220;2023-03-14T02:14:05;2.50;;;1.47;;
74904;SDS011;63465;50.862;6.220;2023-03-14T02:17:07;4.37;;;1.07;;
74904;SDS011;63465;50.862;6.220;2023-03-14T02:20:07;7.90;;;1.43;;
74904;SDS011;63465;50.862;6.220;2023-03-14T02:22:51;3.57;;;1.40;;
74904;SDS011;63465;50.862;6.220;2023-03-14T02:25:20;1.80;;;1.40;;
74904;SDS011;63465;50.862;6.220;2023-03-14T02:27:54;3.67;;;1.20;;
74904;SDS011;63465;50.862;6.220;2023-03-14T02:30:22;5.03;;;1.40;;
74904;SDS011;63465;50.862;6.220;2023-03-14T02:32:51;3.27;;;1.60;;
74904;SDS011;63465;50.862;6.220;2023-03-14T02:35:21;3.07;;;1.17;;
74904;SDS011;63465;50.862;6.220;2023-03-14T02:37:51;10.60;;;1.23;;
74904;SDS011;63465;50.862;6.220;2023-03-14T02:40:23;7.10;;;1.60;;
74904;SDS011;63465;50.862;6.220;2023-03-14T02:42:51;3.30;;;1.50;;
74904;SDS011;63465;50.862;6.220;2023-03-14T02:48:18;7.30;;;2.00;;
74904;SDS011;63465;50.862;6.220;2023-03-14T02:50:47;8.60;;;1.50;;
74904;SDS011;63465;50.862;6.220;2023-03-14T02:53:16;6.00;;;1.57;;
74904;SDS011;63465;50.862;6.220;2023-03-14T02:55:46;9.67;;;1.50;;
74904;SDS011;63465;50.862;6.220;2023-03-14T02:58:15;3.17;;;1.57;;
74904;SDS011;63465;50.862;6.220;2023-03-14T03:00:44;1.73;;;1.43;;
74904;SDS011;63465;50.862;6.220;2023-03-14T03:03:12;6.80;;;1.93;;
74904;SDS011;63465;50.862;6.220;2023-03-14T03:05:40;10.23;;;1.57;;
74904;SDS011;63465;50.862;6.220;2023-03-14T03:08:08;4.53;;;1.47;;
74904;SDS011;63465;50.862;6.220;2023-03-14T03:10:35;3.87;;;1.57;;
74904;SDS011;63465;50.862;6.220;2023-03-14T03:13:03;3.97;;;1.60;;
74904;SDS011;63465;50.862;6.220;2023-03-14T03:15:30;4.77;;;1.60;;
74904;SDS011;63465;50.862;6.220;2023-03-14T03:17:57;4.57;;;1.30;;
74904;SDS011;63465;50.862;6.220;2023-03-14T03:20:25;3.60;;;1.30;;
74904;SDS011;63465;50.862;6.220;2023-03-14T03:22:52;7.53;;;1.30;;
74904;SDS011;63465;50.862;6.220;2023-03-14T03:25:18;5.00;;;1.67;;
74904;SDS011;63465;50.862;6.220;2023-03-14T03:27:45;6.73;;;1.37;;
74904;SDS011;63465;50.862;6.220;2023-03-14T03:30:16;1.10;;;1.00;;
74904;SDS011;63465;50.862;6.220;2023-03-14T03:32:42;3.77;;;0.80;;
74904;SDS011;63465;50.862;6.220;2023-03-14T03:35:10;1.67;;;1.30;;
74904;SDS011;63465;50.862;6.220;2023-03-14T03:37:39;1.53;;;1.10;;
74904;SDS011;63465;50.862;6.220;2023-03-14T03:40:07;2.33;;;1.43;;
74904;SDS011;63465;50.862;6.220;2023-03-14T03:42:36;3.80;;;0.87;;
74904;SDS011;63465;50.862;6.220;2023-03-14T03:45:06;0.93;;;0.80;;
74904;SDS011;63465;50.862;6.220;2023-03-14T03:47:37;0.70;;;0.70;;
74904;SDS011;63465;50.862;6.220;2023-03-14T03:50:04;2.00;;;1.00;;
74904;SDS011;63465;50.862;6.220;2023-03-14T03:52:32;2.10;;;0.80;;
74904;SDS011;63465;50.862;6.220;2023-03-14T03:55:00;0.60;;;0.60;;
74904;SDS011;63465;50.862;6.220;2023-03-14T03:57:28;0.67;;;0.67;;
74904;SDS011;63465;50.862;6.220;2023-03-14T03:59:55;1.33;;;0.70;;
74904;SDS011;63465;50.862;6.220;2023-03-14T04:02:22;0.83;;;0.70;;
74904;SDS011;63465;50.862;6.220;2023-03-14T04:04:50;4.60;;;0.80;;
74904;SDS011;63465;50.862;6.220;2023-03-14T04:07:17;0.67;;;0.60;;
74904;SDS011;63465;50.862;6.220;2023-03-14T04:09:44;2.67;;;0.90;;
74904;SDS011;63465;50.862;6.220;2023-03-14T04:12:22;3.60;;;0.77;;
74904;SDS011;63465;50.862;6.220;2023-03-14T04:15:08;0.73;;;0.60;;
74904;SDS011;63465;50.862;6.220;2023-03-14T04:17:39;1.07;;;0.70;;
74904;SDS011;63465;50.862;6.220;2023-03-14T04:20:07;0.60;;;0.60;;
74904;SDS011;63465;50.862;6.220;2023-03-14T04:22:36;0.50;;;0.50;;
74904;SDS011;63465;50.862;6.220;2023-03-14T04:25:04;1.50;;;0.60;;
74904;SDS011;63465;50.862;6.220;2023-03-14T04:27:36;1.23;;;0.50;;
74904;SDS011;63465;50.862;6.220;2023-03-14T04:30:09;0.50;;;0.50;;
74904;SDS011;63465;50.862;6.220;2023-03-14T04:32:58;0.60;;;0.60;;
74904;SDS011;63465;50.862;6.220;2023-03-14T04:35:26;0.80;;;0.70;;
74904;SDS011;63465;50.862;6.220;2023-03-14T04:37:56;2.10;;;0.50;;
74904;SDS011;63465;50.862;6.220;2023-03-14T04:40:24;0.93;;;0.70;;
74904;SDS011;63465;50.862;6.220;2023-03-14T04:42:56;0.50;;;0.50;;
74904;SDS011;63465;50.862;6.220;2023-03-14T04:45:23;0.50;;;0.50;;
74904;SDS011;63465;50.862;6.220;2023-03-14T04:47:51;0.40;;;0.40;;
74904;SDS011;63465;50.862;6.220;2023-03-14T04:50:19;0.50;;;0.50;;
74904;SDS011;63465;50.862;6.220;2023-03-14T04:52:46;0.50;;;0.50;;
74904;SDS011;63465;50.862;6.220;2023-03-14T04:55:14;1.43;;;0.50;;
74904;SDS011;63465;50.862;6.220;2023-03-14T04:57:41;0.40;;;0.40;;
74904;SDS011;63465;50.862;6.220;2023-03-14T05:00:11;0.40;;;0.40;;
74904;SDS011;63465;50.862;6.220;2023-03-14T05:02:46;0.50;;;0.50;;
74904;SDS011;63465;50.862;6.220;2023-03-14T05:05:23;0.70;;;0.50;;
74904;SDS011;63465;50.862;6.220;2023-03-14T05:08:12;2.53;;;0.53;;
74904;SDS011;63465;50.862;6.220;2023-03-14T05:11:00;0.50;;;0.50;;
74904;SDS011;63465;50.862;6.220;2023-03-14T05:13:55;0.47;;;0.47;;
74904;SDS011;63465;50.862;6.220;2023-03-14T05:16:39;1.00;;;0.40;;
74904;SDS011;63465;50.862;6.220;2023-03-14T05:19:16;0.50;;;0.50;;
74904;SDS011;63465;50.862;6.220;2023-03-14T05:21:43;0.73;;;0.47;;
74904;SDS011;63465;50.862;6.220;2023-03-14T05:24:24;0.50;;;0.50;;
74904;SDS011;63465;50.862;6.220;2023-03-14T05:27:15;2.10;;;0.50;;
74904;SDS011;63465;50.862;6.220;2023-03-14T05:30:08;0.40;;;0.40;;
74904;SDS011;63465;50.862;6.220;2023-03-14T05:32:46;0.73;;;0.40;;
74904;SDS011;63465;50.862;6.220;2023-03-14T05:35:36;0.83;;;0.50;;
74904;SDS011;63465;50.862;6.220;2023-03-14T05:38:15;1.57;;;0.50;;
74904;SDS011;63465;50.862;6.220;2023-03-14T05:40:58;0.60;;;0.60;;
74904;SDS011;63465;50.862;6.220;2023-03-14T05:43:51;0.87;;;0.50;;
74904;SDS011;63465;50.862;6.220;2023-03-14T05:46:44;0.60;;;0.50;;
74904;SDS011;63465;50.862;6.220;2023-03-14T05:49:32;2.20;;;0.50;;
74904;SDS011;63465;50.862;6.220;2023-03-14T05:52:17;0.40;;;0.40;;
74904;SDS011;63465;50.862;6.220;2023-03-14T05:54:56;0.40;;;0.40;;
74904;SDS011;63465;50.862;6.220;2023-03-14T05:57:42;0.50;;;0.50;;
74904;SDS011;63465;50.862;6.220;2023-03-14T06:00:32;0.50;;;0.50;;
74904;SDS011;63465;50.862;6.220;2023-03-14T06:03:14;0.50;;;0.50;;
74904;SDS011;63465;50.862;6.220;2023-03-14T06:05:45;0.40;;;0.40;;
74904;SDS011;63465;50.862;6.220;2023-03-14T06:08:12;0.50;;;0.50;;
74904;SDS011;63465;50.862;6.220;2023-03-14T06:10:39;0.60;;;0.40;;
74904;SDS011;63465;50.862;6.220;2023-03-14T06:13:06;0.50;;;0.50;;
74904;SDS011;63465;50.862;6.220;2023-03-14T06:15:34;0.50;;;0.50;;
74904;SDS011;63465;50.862;6.220;2023-03-14T06:18:01;0.50;;;0.50;;
74904;SDS011;63465;50.862;6.220;2023-03-14T06:20:28;0.50;;;0.50;;
74904;SDS011;63465;50.862;6.220;2023-03-14T06:22:56;0.90;;;0.43;;
74904;SDS011;63465;50.862;6.220;2023-03-14T06:25:23;0.40;;;0.40;;
74904;SDS011;63465;50.862;6.220;2023-03-14T06:27:50;0.43;;;0.43;;
74904;SDS011;63465;50.862;6.220;2023-03-14T06:30:17;0.67;;;0.60;;
74904;SDS011;63465;50.862;6.220;2023-03-14T06:32:44;0.50;;;0.50;;
74904;SDS011;63465;50.862;6.220;2023-03-14T06:35:13;0.93;;;0.60;;
74904;SDS011;63465;50.862;6.220;2023-03-14T06:37:42;0.50;;;0.50;;
74904;SDS011;63465;50.862;6.220;2023-03-14T06:40:11;1.73;;;0.70;;
74904;SDS011;63465;50.862;6.220;2023-03-14T06:43:08;0.70;;;0.70;;
74904;SDS011;63465;50.862;6.220;2023-03-14T06:45:36;0.53;;;0.53;;
74904;SDS011;63465;50.862;6.220;2023-03-14T06:48:03;0.60;;;0.60;;
74904;SDS011;63465;50.862;6.220;2023-03-14T06:50:37;0.60;;;0.60;;
74904;SDS011;63465;50.862;6.220;2023-03-14T06:53:04;0.60;;;0.60;;
74904;SDS011;63465;50.862;6.220;2023-03-14T06:55:34;0.80;;;0.70;;
74904;SDS011;63465;50.862;6.220;2023-03-14T06:58:01;0.60;;;0.60;;
74904;SDS011;63465;50.862;6.220;2023-03-14T07:00:29;0.63;;;0.63;;
74904;SDS011;63465;50.862;6.220;2023-03-14T07:02:56;2.07;;;0.80;;
74904;SDS011;63465;50.862;6.220;2023-03-14T07:05:33;0.80;;;0.63;;
74904;SDS011;63465;50.862;6.220;2023-03-14T07:08:00;0.80;;;0.80;;
74904;SDS011;63465;50.862;6.220;2023-03-14T07:10:27;0.73;;;0.73;;
74904;SDS011;63465;50.862;6.220;2023-03-14T07:12:55;1.17;;;0.70;;
74904;SDS011;63465;50.862;6.220;2023-03-14T07:15:25;0.50;;;0.50;;
74904;SDS011;63465;50.862;6.220;2023-03-14T07:17:56;0.63;;;0.63;;
74904;SDS011;63465;50.862;6.220;2023-03-14T07:20:24;0.67;;;0.67;;
74904;SDS011;63465;50.862;6.220;2023-03-14T07:22:51;0.60;;;0.60;;
74904;SDS011;63465;50.862;6.220;2023-03-14T07:25:27;1.73;;;0.63;;
74904;SDS011;63465;50.862;6.220;2023-03-14T07:27:56;0.60;;;0.60;;
74904;SDS011;63465;50.862;6.220;2023-03-14T07:30:22;0.70;;;0.70;;
74904;SDS011;63465;50.862;6.220;2023-03-14T07:32:50;0.70;;;0.70;;
74904;SDS011;63465;50.862;6.220;2023-03-14T07:35:17;0.60;;;0.60;;
74904;SDS011;63465;50.862;6.220;2023-03-14T07:37:43;0.70;;;0.70;;
74904;SDS011;63465;50.862;6.220;2023-03-14T07:40:12;1.87;;;1.40;;
74904;SDS011;63465;50.862;6.220;2023-03-14T07:42:40;0.50;;;0.50;;
74904;SDS011;63465;50.862;6.220;2023-03-14T07:45:15;1.57;;;0.73;;
74904;SDS011;63465;50.862;6.220;2023-03-14T07:47:42;0.60;;;0.60;;
74904;SDS011;63465;50.862;6.220;2023-03-14T07:50:09;0.60;;;0.60;;
74904;SDS011;63465;50.862;6.220;2023-03-14T07:52:37;0.80;;;0.80;;
74904;SDS011;63465;50.862;6.220;2023-03-14T07:55:04;0.97;;;0.70;;
74904;SDS011;63465;50.862;6.220;2023-03-14T07:57:31;0.50;;;0.50;;
74904;SDS011;63465;50.862;6.220;2023-03-14T07:59:58;1.77;;;0.60;;
74904;SDS011;63465;50.862;6.220;2023-03-14T08:02:26;0.60;;;0.60;;
74904;SDS011;63465;50.862;6.220;2023-03-14T08:04:52;1.13;;;0.80;;
74904;SDS011;63465;50.862;6.220;2023-03-14T08:07:19;0.60;;;0.60;;
74904;SDS011;63465;50.862;6.220;2023-03-14T08:09:46;1.07;;;0.80;;
74904;SDS011;63465;50.862;6.220;2023-03-14T08:12:12;0.73;;;0.73;;
74904;SDS011;63465;50.862;6.220;2023-03-14T08:14:39;1.13;;;0.80;;
74904;SDS011;63465;50.862;6.220;2023-03-14T08:17:06;3.90;;;1.00;;
74904;SDS011;63465;50.862;6.220;2023-03-14T08:19:34;1.20;;;1.20;;
74904;SDS011;63465;50.862;6.220;2023-03-14T08:22:01;0.80;;;0.80;;
74904;SDS011;63465;50.862;6.220;2023-03-14T08:24:29;1.70;;;1.00;;
74904;SDS011;63465;50.862;6.220;2023-03-14T08:26:56;1.57;;;1.13;;
74904;SDS011;63465;50.862;6.220;2023-03-14T08:29:22;2.70;;;1.00;;
74904;SDS011;63465;50.862;6.220;2023-03-14T08:31:49;1.10;;;1.00;;
74904;SDS011;63465;50.862;6.220;2023-03-14T08:34:16;1.20;;;1.00;;
74904;SDS011;63465;50.862;6.220;2023-03-14T08:36:44;1.20;;;1.20;;
74904;SDS011;63465;50.862;6.220;2023-03-14T08:39:11;2.20;;;1.00;;
74904;SDS011;63465;50.862;6.220;2023-03-14T08:41:38;1.53;;;1.00;;
74904;SDS011;63465;50.862;6.220;2023-03-14T08:44:08;1.23;;;0.80;;
74904;SDS011;63465;50.862;6.220;2023-03-14T08:46:35;0.80;;;0.80;;
74904;SDS011;63465;50.862;6.220;2023-03-14T08:49:02;1.70;;;0.90;;
74904;SDS011;63465;50.862;6.220;2023-03-14T08:51:28;0.70;;;0.70;;
74904;SDS011;63465;50.862;6.220;2023-03-14T08:53:57;0.70;;;0.70;;
74904;SDS011;63465;50.862;6.220;2023-03-14T08:56:23;0.70;;;0.70;;
74904;SDS011;63465;50.862;6.220;2023-03-14T08:58:50;2.60;;;0.73;;
74904;SDS011;63465;50.862;6.220;2023-03-14T09:01:17;1.80;;;1.40;;
74904;SDS011;63465;50.862;6.220;2023-03-14T09:03:44;1.37;;;1.27;;
74904;SDS011;63465;50.862;6.220;2023-03-14T09:06:13;1.30;;;1.00;;
74904;SDS011;63465;50.862;6.220;2023-03-14T09:08:43;0.70;;;0.70;;
74904;SDS011;63465;50.862;6.220;2023-03-14T09:11:11;0.67;;;0.67;;
74904;SDS011;63465;50.862;6.220;2023-03-14T09:13:39;2.40;;;0.70;;
74904;SDS011;63465;50.862;6.220;2023-03-14T09:16:06;0.70;;;0.70;;
74904;SDS011;63465;50.862;6.220;2023-03-14T09:18:33;0.60;;;0.60;;
74904;SDS011;63465;50.862;6.220;2023-03-14T09:21:00;1.60;;;0.70;;
74904;SDS011;63465;50.862;6.220;2023-03-14T09:23:27;0.60;;;0.60;;
74904;SDS011;63465;50.862;6.220;2023-03-14T09:25:54;0.53;;;0.53;;
74904;SDS011;63465;50.862;6.220;2023-03-14T09:28:23;1.40;;;0.60;;
74904;SDS011;63465;50.862;6.220;2023-03-14T09:30:49;1.17;;;0.70;;
74904;SDS011;63465;50.862;6.220;2023-03-14T09:33:17;0.90;;;0.90;;
74904;SDS011;63465;50.862;6.220;2023-03-14T09:35:44;1.50;;;0.90;;
74904;SDS011;63465;50.862;6.220;2023-03-14T09:38:11;2.00;;;0.70;;
74904;SDS011;63465;50.862;6.220;2023-03-14T09:40:38;1.13;;;1.07;;
74904;SDS011;63465;50.862;6.220;2023-03-14T09:43:05;1.77;;;1.20;;
74904;SDS011;63465;50.862;6.220;2023-03-14T09:45:34;0.80;;;0.80;;
74904;SDS011;63465;50.862;6.220;2023-03-14T09:48:03;0.97;;;0.97;;
74904;SDS011;63465;50.862;6.220;2023-03-14T09:50:33;1.90;;;0.93;;
74904;SDS011;63465;50.862;6.220;2023-03-14T09:53:06;3.27;;;1.40;;
74904;SDS011;63465;50.862;6.220;2023-03-14T09:55:35;1.20;;;1.10;;
74904;SDS011;63465;50.862;6.220;2023-03-14T09:58:03;1.80;;;1.43;;
74904;SDS011;63465;50.862;6.220;2023-03-14T10:00:38;1.00;;;1.00;;
74904;SDS011;63465;50.862;6.220;2023-03-14T10:03:14;0.80;;;0.80;;
74904;SDS011;63465;50.862;6.220;2023-03-14T10:05:48;1.10;;;1.10;;
74904;SDS011;63465;50.862;6.220;2023-03-14T10:08:14;0.97;;;0.97;;
74904;SDS011;63465;50.862;6.220;2023-03-14T10:10:41;1.30;;;1.30;;
74904;SDS011;63465;50.862;6.220;2023-03-14T10:13:12;1.10;;;1.10;;
74904;SDS011;63465;50.862;6.220;2023-03-14T10:15:48;1.50;;;1.40;;
74904;SDS011;63465;50.862;6.220;2023-03-14T10:18:19;2.00;;;1.13;;
74904;SDS011;63465;50.862;6.220;2023-03-14T10:20:47;4.00;;;1.33;;
74904;SDS011;63465;50.862;6.220;2023-03-14T10:23:26;1.43;;;1.30;;
74904;SDS011;63465;50.862;6.220;2023-03-14T10:25:59;3.43;;;3.00;;
74904;SDS011;63465;50.862;6.220;2023-03-14T10:28:31;3.23;;;2.93;;
74904;SDS011;63465;50.862;6.220;2023-03-14T10:31:01;2.20;;;2.10;;
74904;SDS011;63465;50.862;6.220;2023-03-14T10:33:29;3.13;;;2.70;;
74904;SDS011;63465;50.862;6.220;2023-03-14T10:35:57;2.40;;;2.20;;
74904;SDS011;63465;50.862;6.220;2023-03-14T10:38:26;6.63;;;2.10;;
74904;SDS011;63465;50.862;6.220;2023-03-14T10:40:54;2.20;;;2.00;;
74904;SDS011;63465;50.862;6.220;2023-03-14T10:43:24;2.53;;;2.33;;
74904;SDS011;63465;50.862;6.220;2023-03-14T10:45:54;7.00;;;2.20;;
74904;SDS011;63465;50.862;6.220;2023-03-14T10:48:28;2.10;;;1.90;;
74904;SDS011;63465;50.862;6.220;2023-03-14T10:50:58;2.20;;;1.80;;
74904;SDS011;63465;50.862;6.220;2023-03-14T10:53:32;1.90;;;1.80;;
74904;SDS011;63465;50.862;6.220;2023-03-14T10:56:02;2.50;;;2.30;;
74904;SDS011;63465;50.862;6.220;2023-03-14T10:58:31;1.80;;;1.70;;
74904;SDS011;63465;50.862;6.220;2023-03-14T11:01:04;3.23;;;1.80;;
74904;SDS011;63465;50.862;6.220;2023-03-14T11:03:42;1.57;;;1.50;;
74904;SDS011;63465;50.862;6.220;2023-03-14T11:06:16;2.00;;;1.90;;
74904;SDS011;63465;50.862;6.220;2023-03-14T11:08:51;1.67;;;1.57;;
74904;SDS011;63465;50.862;6.220;2023-03-14T11:11:22;1.50;;;1.40;;
74904;SDS011;63465;50.862;6.220;2023-03-14T11:13:54;1.90;;;1.30;;
74904;SDS011;63465;50.862;6.220;2023-03-14T11:16:31;1.77;;;1.67;;
74904;SDS011;63465;50.862;6.220;2023-03-14T11:19:21;1.20;;;1.10;;
74904;SDS011;63465;50.862;6.220;2023-03-14T11:22:03;1.73;;;1.20;;
74904;SDS011;63465;50.862;6.220;2023-03-14T11:24:45;1.03;;;1.03;;
74904;SDS011;63465;50.862;6.220;2023-03-14T11:27:21;2.10;;;1.10;;
74904;SDS011;63465;50.862;6.220;2023-03-14T11:29:54;2.10;;;1.47;;
74904;SDS011;63465;50.862;6.220;2023-03-14T11:32:24;1.30;;;1.20;;
74904;SDS011;63465;50.862;6.220;2023-03-14T11:35:01;2.07;;;1.33;;
74904;SDS011;63465;50.862;6.220;2023-03-14T11:37:34;3.43;;;1.80;;
74904;SDS011;63465;50.862;6.220;2023-03-14T11:40:08;3.77;;;1.60;;
74904;SDS011;63465;50.862;6.220;2023-03-14T11:42:40;3.60;;;0.90;;
74904;SDS011;63465;50.862;6.220;2023-03-14T11:45:12;0.60;;;0.60;;
74904;SDS011;63465;50.862;6.220;2023-03-14T11:47:43;1.33;;;0.67;;
74904;SDS011;63465;50.862;6.220;2023-03-14T11:50:18;0.77;;;0.77;;
74904;SDS011;63465;50.862;6.220;2023-03-14T11:52:50;1.30;;;1.20;;
74904;SDS011;63465;50.862;6.220;2023-03-14T11:55:22;1.23;;;1.23;;
74904;SDS011;63465;50.862;6.220;2023-03-14T11:57:53;2.07;;;1.40;;
74904;SDS011;63465;50.862;6.220;2023-03-14T12:00:25;1.33;;;1.10;;
74904;SDS011;63465;50.862;6.220;2023-03-14T12:02:53;1.30;;;1.20;;
74904;SDS011;63465;50.862;6.220;2023-03-14T12:11:20;1.47;;;1.00;;
74904;SDS011;63465;50.862;6.220;2023-03-14T12:13:58;1.40;;;1.30;;
74904;SDS011;63465;50.862;6.220;2023-03-14T12:16:30;1.13;;;1.10;;
74904;SDS011;63465;50.862;6.220;2023-03-14T12:19:13;1.80;;;1.37;;
74904;SDS011;63465;50.862;6.220;2023-03-14T12:21:47;3.23;;;1.13;;
74904;SDS011;63465;50.862;6.220;2023-03-14T12:24:18;1.50;;;1.37;;
74904;SDS011;63465;50.862;6.220;2023-03-14T12:26:50;2.73;;;1.50;;
74904;SDS011;63465;50.862;6.220;2023-03-14T12:29:20;0.93;;;0.90;;
74904;SDS011;63465;50.862;6.220;2023-03-14T12:31:47;5.07;;;1.30;;
74904;SDS011;63465;50.862;6.220;2023-03-14T12:34:28;1.33;;;1.20;;
74904;SDS011;63465;50.862;6.220;2023-03-14T12:37:00;10.47;;;1.30;;
74904;SDS011;63465;50.862;6.220;2023-03-14T12:39:37;6.30;;;2.27;;
74904;SDS011;63465;50.862;6.220;2023-03-14T12:42:15;2.47;;;1.47;;
74904;SDS011;63465;50.862;6.220;2023-03-14T12:44:47;6.83;;;1.27;;
74904;SDS011;63465;50.862;6.220;2023-03-14T12:50:22;1.57;;;1.20;;
74904;SDS011;63465;50.862;6.220;2023-03-14T12:53:00;5.97;;;1.23;;
74904;SDS011;63465;50.862;6.220;2023-03-14T12:56:05;1.90;;;1.20;;
74904;SDS011;63465;50.862;6.220;2023-03-14T12:58:38;3.43;;;1.80;;
74904;SDS011;63465;50.862;6.220;2023-03-14T13:01:14;4.07;;;1.40;;
74904;SDS011;63465;50.862;6.220;2023-03-14T13:03:43;1.10;;;1.00;;
74904;SDS011;63465;50.862;6.220;2023-03-14T13:06:13;10.07;;;1.90;;
74904;SDS011;63465;50.862;6.220;2023-03-14T13:09:07;6.10;;;1.50;;
74904;SDS011;63465;50.862;6.220;2023-03-14T13:12:09;5.60;;;1.50;;
74904;SDS011;63465;50.862;6.220;2023-03-14T13:14:40;5.77;;;1.60;;
74904;SDS011;63465;50.862;6.220;2023-03-14T13:17:09;8.40;;;2.20;;
74904;SDS011;63465;50.862;6.220;2023-03-14T13:19:37;3.70;;;1.33;;
74904;SDS011;63465;50.862;6.220;2023-03-14T13:22:05;2.67;;;1.80;;
74904;SDS011;63465;50.862;6.220;2023-03-14T13:24:43;4.60;;;2.43;;
74904;SDS011;63465;50.862;6.220;2023-03-14T13:27:13;3.10;;;1.67;;
74904;SDS011;63465;50.862;6.220;2023-03-14T13:29:44;2.50;;;1.27;;
74904;SDS011;63465;50.862;6.220;2023-03-14T13:32:15;2.63;;;1.30;;
74904;SDS011;63465;50.862;6.220;2023-03-14T13:34:45;4.83;;;1.53;;
74904;SDS011;63465;50.862;6.220;2023-03-14T13:37:17;6.03;;;1.40;;
74904;SDS011;63465;50.862;6.220;2023-03-14T13:39:50;11.03;;;1.53;;
74904;SDS011;63465;50.862;6.220;2023-03-14T13:42:18;4.13;;;1.30;;
74904;SDS011;63465;50.862;6.220;2023-03-14T13:44:45;3.87;;;1.40;;
74904;SDS011;63465;50.862;6.220;2023-03-14T13:47:13;5.03;;;1.70;;
74904;SDS011;63465;50.862;6.220;2023-03-14T13:49:42;6.37;;;1.57;;
74904;SDS011;63465;50.862;6.220;2023-03-14T13:52:23;5.30;;;1.87;;
74904;SDS011;63465;50.862;6.220;2023-03-14T13:54:55;7.80;;;1.53;;
74904;SDS011;63465;50.862;6.220;2023-03-14T13:57:22;4.47;;;1.10;;
74904;SDS011;63465;50.862;6.220;2023-03-14T13:59:59;7.33;;;1.63;;
74904;SDS011;63465;50.862;6.220;2023-03-14T14:02:30;3.10;;;1.97;;
74904;SDS011;63465;50.862;6.220;2023-03-14T14:04:58;4.50;;;1.40;;
74904;SDS011;63465;50.862;6.220;2023-03-14T14:07:25;8.00;;;1.73;;
74904;SDS011;63465;50.862;6.220;2023-03-14T14:09:52;13.40;;;2.30;;
74904;SDS011;63465;50.862;6.220;2023-03-14T14:12:22;7.20;;;2.13;;
74904;SDS011;63465;50.862;6.220;2023-03-14T14:14:55;7.70;;;2.07;;
74904;SDS011;63465;50.862;6.220;2023-03-14T14:17:26;5.20;;;2.23;;
74904;SDS011;63465;50.862;6.220;2023-03-14T14:19:57;8.40;;;2.40;;
74904;SDS011;63465;50.862;6.220;2023-03-14T14:22:25;8.03;;;2.30;;
74904;SDS011;63465;50.862;6.220;2023-03-14T14:24:54;6.43;;;2.10;;
74904;SDS011;63465;50.862;6.220;2023-03-14T14:27:24;6.40;;;2.47;;
74904;SDS011;63465;50.862;6.220;2023-03-14T14:29:57;5.43;;;1.80;;
74904;SDS011;63465;50.862;6.220;2023-03-14T14:32:26;9.93;;;2.43;;
74904;SDS011;63465;50.862;6.220;2023-03-14T14:34:56;10.37;;;2.37;;
74904;SDS011;63465;50.862;6.220;2023-03-14T14:37:25;13.03;;;2.77;;
74904;SDS011;63465;50.862;6.220;2023-03-14T14:39:55;15.00;;;2.40;;
74904;SDS011;63465;50.862;6.220;2023-03-14T14:42:24;9.43;;;1.90;;
74904;SDS011;63465;50.862;6.220;2023-03-14T14:44:53;4.50;;;2.00;;
74904;SDS011;63465;50.862;6.220;2023-03-14T14:47:20;3.30;;;2.07;;
74904;SDS011;63465;50.862;6.220;2023-03-14T14:49:49;7.97;;;2.53;;
74904;SDS011;63465;50.862;6.220;2023-03-14T14:52:18;10.60;;;2.50;;
74904;SDS011;63465;50.862;6.220;2023-03-14T14:54:47;9.50;;;1.50;;
74904;SDS011;63465;50.862;6.220;2023-03-14T14:57:22;14.10;;;2.27;;
74904;SDS011;63465;50.862;6.220;2023-03-14T14:59:50;17.63;;;4.37;;
74904;SDS011;63465;50.862;6.220;2023-03-14T15:02:28;20.83;;;3.50;;
74904;SDS011;63465;50.862;6.220;2023-03-14T15:04:58;7.73;;;3.00;;
74904;SDS011;63465;50.862;6.220;2023-03-14T15:07:25;9.23;;;2.13;;
74904;SDS011;63465;50.862;6.220;2023-03-14T15:09:52;12.33;;;3.20;;
74904;SDS011;63465;50.862;6.220;2023-03-14T15:12:20;14.00;;;3.60;;
74904;SDS011;63465;50.862;6.220;2023-03-14T15:14:49;7.17;;;2.73;;
74904;SDS011;63465;50.862;6.220;2023-03-14T15:17:16;13.83;;;3.80;;
74904;SDS011;63465;50.862;6.220;2023-03-14T15:19:43;7.80;;;3.37;;
74904;SDS011;63465;50.862;6.220;2023-03-14T15:22:11;5.30;;;2.10;;
74904;SDS011;63465;50.862;6.220;2023-03-14T15:24:39;16.73;;;3.10;;
74904;SDS011;63465;50.862;6.220;2023-03-14T15:27:09;8.87;;;2.00;;